Acadiana Regional Airport New Iberia US
ICAO: KARA
IATA: ARA
Category: Medium
Scheduled Services: No

Elevation: 24 ft
TransAlt. 18000 ft.

Airport Communications:
LAFAYETTE APP/DEP:121.1
CLNC DEL:121.7
CTAF:125
GND:121.7
TWR:125
UNICOM:122.95

KARA Zoom In..

If you have problems with the map follow the link
https://www.worldairports.se/pages/airport.php?
ICAO=KARA

Runways:

(A) RW 16 length 8002 ft width 200 ft
---- / hdg 165

(B) RW 34 length 8002 ft width 200 ft
ILS 108.90 / hdg 345

Location; KARA
Day. 18 / Time. 23.53 Zulu
* Altimeter: 30.21
* Temperature: 23° c. 73.4°f.
* Wind from: 030° Speed 05 kn.
Dewpoint: 17° c.
Visibility: 10 Statute Miles.
Clouds: Clear (automated report).

KARA 182353Z 03005KT 10SM CLR 23/17 A3021 RMK AO2 SLP230 T02280167 10272 20228 53008


Wind From 030°
Speed 05 kn.

 
 
jpsmedia.com for Web Design worldairports.se 2018   terms of use